Westville, Connecticut
Current Conditions -  °F | °C
As of 5:53 AM on Friday 19 Dec 2014 (Local Time) from KHVN Reporting Station
Overcast Overcast  
Wind Chill: 33°   Ceiling: 3900
Heat Index: 39°   Visibility: 10mi
Dew Point: 24°   Wind: 9mph
Humidity: 55%   Direction: 330°NNW
Pressure: 29.96"   Gusts: NA
Location:  41.3258°N, 72.9705°W
Report Text: KHVN 191053Z 33008KT 10SM OVC039 04/M04 A2996 RMK AO2 SLP144 T00391044
Loading
Personal Weather Stations






























Interactive Weather Map New forecast layout! Learn more

10-Day Weather Forecast

Advertisements
Track Severe Weather on mobile